Time;durP1;ratioP1;P1;durP2;ratioP2;P2;SDS_P1;SDS_P2;PMS_P1;PMS_P2;Temp;Humidity;BMP_temperature;BMP_pressure;BME280_temperature;BME280_humidity;BME280_pressure;Samples;Min_cycle;Max_cycle;Signal;HPM_P1;HPM_P2
2022/03/12 00:02:00;;;;;;;;;;;7.70;67.20;;;;;;5079760;28;19924;-79
2022/03/12 00:04:26;;;;;;;;;;;7.70;67.30;;;;;;5079507;28;19924;-79
2022/03/12 00:06:52;;;;;;;;;;;7.70;67.60;;;;;;5079466;28;19928;-79
2022/03/12 00:09:18;;;;;;;;;;;7.70;67.40;;;;;;5079010;28;19923;-79
2022/03/12 00:11:51;;;;;;;;;;;7.60;68.00;;;;;;5062975;28;19927;-79
2022/03/12 00:14:22;;;;;;;;;;;7.60;68.40;;;;;;5063926;28;19931;-79
2022/03/12 00:16:51;;;;;;;;;;;7.50;68.40;;;;;;5079476;28;19924;-79
2022/03/12 00:19:17;;;;;;;;;;;7.50;68.40;;;;;;5079257;28;20018;-78
2022/03/12 00:21:43;;;;;;;;;;;7.50;68.40;;;;;;5059241;28;19924;-79
2022/03/12 00:24:11;;;;;;;;;;;7.50;68.20;;;;;;5095703;28;19932;-79
2022/03/12 00:26:41;;;;;;;;;;;7.40;68.00;;;;;;5096448;28;20252;-79
2022/03/12 00:29:14;;;;;;;;;;;7.50;68.00;;;;;;5063224;28;19931;-79
2022/03/12 00:31:53;;;;;;;;;;;7.40;68.70;;;;;;5096334;28;19928;-79
2022/03/12 00:34:19;;;;;;;;;;;7.50;67.90;;;;;;5079756;28;20398;-79
2022/03/12 00:36:46;;;;;;;;;;;7.40;68.40;;;;;;5079356;28;19967;-79
2022/03/12 00:39:12;;;;;;;;;;;7.40;68.50;;;;;;5096359;28;19984;-79
2022/03/12 00:41:42;;;;;;;;;;;7.40;68.50;;;;;;5079181;28;19923;-79
2022/03/12 00:44:09;;;;;;;;;;;7.40;68.10;;;;;;5079655;28;19963;-79
2022/03/12 00:46:35;;;;;;;;;;;7.30;68.90;;;;;;5096008;28;19927;-80
2022/03/12 00:49:00;;;;;;;;;;;7.40;68.80;;;;;;5095767;28;19924;-79
2022/03/12 00:51:26;;;;;;;;;;;7.30;69.10;;;;;;5095943;28;19967;-81
2022/03/12 00:53:51;;;;;;;;;;;7.30;68.90;;;;;;5096227;28;19924;-79
2022/03/12 00:56:17;;;;;;;;;;;7.20;68.40;;;;;;5078958;28;20364;-79
2022/03/12 00:58:47;;;;;;;;;;;7.30;67.80;;;;;;5095999;28;19991;-79
2022/03/12 01:01:13;;;;;;;;;;;7.30;69.10;;;;;;5079007;28;20303;-79
2022/03/12 01:03:38;;;;;;;;;;;7.30;68.10;;;;;;5095837;28;19931;-79
2022/03/12 01:06:05;;;;;;;;;;;7.30;67.90;;;;;;5095955;28;19947;-78
2022/03/12 01:08:32;;;;;;;;;;;7.20;68.70;;;;;;5095323;28;19924;-79
2022/03/12 01:10:59;;;;;;;;;;;7.30;68.30;;;;;;5095174;28;20256;-79
2022/03/12 01:13:25;;;;;;;;;;;7.30;67.90;;;;;;5078359;28;19936;-80
2022/03/12 01:15:50;;;;;;;;;;;7.30;67.60;;;;;;5095019;28;20244;-79
2022/03/12 01:18:18;;;;;;;;;;;7.30;67.40;;;;;;5095020;28;19931;-79
2022/03/12 01:20:44;;;;;;;;;;;7.20;67.80;;;;;;5095344;28;19930;-79
2022/03/12 01:23:13;;;;;;;;;;;7.30;68.00;;;;;;5095274;28;19931;-80
2022/03/12 01:25:42;;;;;;;;;;;7.20;67.70;;;;;;5062423;28;19931;-79
2022/03/12 01:28:08;;;;;;;;;;;7.20;67.50;;;;;;5095449;28;20356;-79
2022/03/12 01:30:34;;;;;;;;;;;7.20;67.90;;;;;;5095732;28;20105;-79
2022/03/12 01:33:00;;;;;;;;;;;7.20;68.10;;;;;;5095648;28;19975;-79
2022/03/12 01:35:26;;;;;;;;;;;7.20;68.10;;;;;;5095468;28;20002;-79
2022/03/12 01:37:51;;;;;;;;;;;7.20;67.70;;;;;;5078681;28;19928;-79
2022/03/12 01:40:17;;;;;;;;;;;7.20;67.00;;;;;;5095824;28;19927;-79
2022/03/12 01:42:43;;;;;;;;;;;7.20;67.30;;;;;;5078301;28;19923;-79
2022/03/12 01:45:10;;;;;;;;;;;7.20;67.30;;;;;;5078624;28;19935;-79
2022/03/12 01:47:36;;;;;;;;;;;7.20;67.60;;;;;;5094982;28;19923;-79
2022/03/12 01:50:02;;;;;;;;;;;7.20;67.10;;;;;;5058469;28;19973;-79
2022/03/12 01:52:28;;;;;;;;;;;7.20;67.50;;;;;;5109205;28;19924;-79
2022/03/12 01:54:54;;;;;;;;;;;7.30;67.30;;;;;;5097690;28;19923;-79
2022/03/12 01:57:20;;;;;;;;;;;7.30;67.40;;;;;;5128634;28;19930;-79
2022/03/12 01:59:46;;;;;;;;;;;7.30;67.50;;;;;;5121277;28;19947;-79
2022/03/12 02:02:13;;;;;;;;;;;7.30;67.30;;;;;;5074857;28;20417;-79
2022/03/12 02:04:39;;;;;;;;;;;7.20;67.70;;;;;;5088348;28;19927;-84
2022/03/12 02:07:05;;;;;;;;;;;7.20;68.00;;;;;;5077714;28;19927;-79
2022/03/12 02:09:31;;;;;;;;;;;7.20;67.60;;;;;;5094690;28;19924;-79
2022/03/12 02:11:57;;;;;;;;;;;7.20;67.60;;;;;;5096430;28;19924;-79
2022/03/12 02:14:27;;;;;;;;;;;7.30;67.50;;;;;;5098789;28;19924;-79
2022/03/12 02:16:57;;;;;;;;;;;7.30;67.30;;;;;;5098814;28;19924;-79
2022/03/12 02:19:25;;;;;;;;;;;7.30;67.70;;;;;;5098897;28;19946;-79
2022/03/12 02:22:02;;;;;;;;;;;7.30;68.10;;;;;;5098507;28;20338;-79
2022/03/12 02:24:29;;;;;;;;;;;7.40;67.30;;;;;;5081867;28;20368;-79
2022/03/12 02:26:55;;;;;;;;;;;7.40;67.80;;;;;;5064855;28;20562;-86
2022/03/12 02:29:22;;;;;;;;;;;7.50;67.80;;;;;;5098375;28;19931;-79
2022/03/12 02:31:50;;;;;;;;;;;7.40;67.30;;;;;;5064865;28;19924;-79
2022/03/12 02:34:22;;;;;;;;;;;7.50;67.40;;;;;;5081787;28;20325;-79
2022/03/12 02:36:49;;;;;;;;;;;7.50;67.50;;;;;;5071827;28;19923;-79
2022/03/12 02:39:16;;;;;;;;;;;7.60;68.00;;;;;;5098601;28;20470;-79
2022/03/12 02:41:42;;;;;;;;;;;7.60;67.30;;;;;;5098144;28;19976;-79
2022/03/12 02:44:16;;;;;;;;;;;7.60;67.30;;;;;;5081468;28;19973;-79
2022/03/12 02:46:42;;;;;;;;;;;7.60;67.70;;;;;;5098295;28;19923;-79
2022/03/12 02:49:07;;;;;;;;;;;7.60;67.70;;;;;;5081066;28;19924;-79
2022/03/12 02:51:34;;;;;;;;;;;7.70;66.90;;;;;;5081231;28;20318;-79
2022/03/12 02:54:00;;;;;;;;;;;7.70;66.40;;;;;;5081343;28;20017;-79
2022/03/12 02:56:26;;;;;;;;;;;7.80;66.30;;;;;;5097935;28;20411;-79
2022/03/12 02:58:52;;;;;;;;;;;7.90;66.00;;;;;;5097997;28;19924;-79
2022/03/12 03:01:18;;;;;;;;;;;8.00;64.90;;;;;;5114980;28;19931;-79
2022/03/12 03:03:45;;;;;;;;;;;8.10;64.30;;;;;;5080575;28;19923;-79
2022/03/12 03:06:13;;;;;;;;;;;8.10;65.20;;;;;;5097888;28;19924;-79
2022/03/12 03:08:39;;;;;;;;;;;8.20;63.10;;;;;;5097581;28;19977;-78
2022/03/12 03:11:09;;;;;;;;;;;8.30;64.30;;;;;;5097844;28;19928;-79
2022/03/12 03:13:36;;;;;;;;;;;8.40;63.50;;;;;;5132099;27;20018;-79
2022/03/12 03:16:10;;;;;;;;;;;8.40;63.50;;;;;;5097540;28;19919;-79
2022/03/12 03:18:38;;;;;;;;;;;8.40;63.40;;;;;;5080671;28;19986;-79
2022/03/12 03:21:06;;;;;;;;;;;8.40;62.70;;;;;;5097010;28;20162;-81
2022/03/12 03:23:31;;;;;;;;;;;8.50;62.60;;;;;;5096605;28;19935;-78
2022/03/12 03:25:59;;;;;;;;;;;8.60;62.70;;;;;;5097346;28;19977;-78
2022/03/12 03:28:25;;;;;;;;;;;8.60;63.10;;;;;;5080467;28;19986;-79
2022/03/12 03:30:50;;;;;;;;;;;8.60;63.00;;;;;;5097252;28;19956;-79
2022/03/12 03:33:22;;;;;;;;;;;8.60;63.00;;;;;;5097600;28;19928;-79
2022/03/12 03:35:49;;;;;;;;;;;8.60;63.10;;;;;;5096753;28;20014;-79
2022/03/12 03:38:14;;;;;;;;;;;8.60;63.80;;;;;;5096934;28;19931;-79
2022/03/12 03:40:41;;;;;;;;;;;8.60;63.70;;;;;;5096730;28;20067;-79
2022/03/12 03:43:09;;;;;;;;;;;8.60;64.10;;;;;;5096602;28;19919;-79
2022/03/12 03:45:35;;;;;;;;;;;8.50;64.90;;;;;;5079852;28;19931;-79
2022/03/12 03:48:00;;;;;;;;;;;8.40;65.80;;;;;;5096287;28;19924;-79
2022/03/12 03:50:26;;;;;;;;;;;8.40;67.20;;;;;;5076855;28;20428;-78
2022/03/12 03:52:56;;;;;;;;;;;8.40;66.40;;;;;;5093487;28;19930;-79
2022/03/12 03:55:25;;;;;;;;;;;8.40;67.40;;;;;;5065881;28;20015;-79
2022/03/12 03:57:53;;;;;;;;;;;8.30;67.30;;;;;;5079557;28;20482;-79
2022/03/12 04:00:21;;;;;;;;;;;8.40;67.10;;;;;;5096900;28;19924;-79
2022/03/12 04:02:47;;;;;;;;;;;8.40;68.80;;;;;;5079792;28;20329;-79
2022/03/12 04:05:13;;;;;;;;;;;8.30;69.00;;;;;;5096674;28;20018;-79
2022/03/12 04:07:38;;;;;;;;;;;8.30;69.10;;;;;;5096591;28;19978;-79
2022/03/12 04:10:04;;;;;;;;;;;8.40;69.30;;;;;;5096711;28;20026;-79
2022/03/12 04:12:30;;;;;;;;;;;8.30;70.70;;;;;;5096444;28;19935;-78
2022/03/12 04:14:56;;;;;;;;;;;8.20;70.60;;;;;;5079585;28;19924;-79
2022/03/12 04:17:22;;;;;;;;;;;8.20;71.10;;;;;;5079498;28;20268;-78
2022/03/12 04:19:48;;;;;;;;;;;8.20;74.50;;;;;;5096540;28;19985;-80
2022/03/12 04:22:16;;;;;;;;;;;8.10;76.00;;;;;;5096118;28;19950;-78
2022/03/12 04:24:41;;;;;;;;;;;8.00;79.40;;;;;;5096490;28;20318;-79
2022/03/12 04:27:07;;;;;;;;;;;7.90;81.20;;;;;;5096394;28;19923;-78
2022/03/12 04:29:32;;;;;;;;;;;7.90;86.10;;;;;;5079208;28;19970;-78
2022/03/12 04:31:58;;;;;;;;;;;7.70;91.70;;;;;;5096379;28;19924;-78
2022/03/12 04:34:23;;;;;;;;;;;7.60;95.20;;;;;;5095649;28;20414;-78
2022/03/12 04:36:49;;;;;;;;;;;7.60;97.20;;;;;;5079172;28;19928;-82
2022/03/12 04:39:15;;;;;;;;;;;7.40;99.60;;;;;;5096393;28;19928;-78
2022/03/12 04:41:41;;;;;;;;;;;7.30;99.90;;;;;;5096178;28;19993;-78
2022/03/12 04:44:07;;;;;;;;;;;7.30;99.90;;;;;;5079320;28;19931;-78
2022/03/12 04:46:33;;;;;;;;;;;7.20;99.90;;;;;;5129177;27;20288;-78
2022/03/12 04:48:59;;;;;;;;;;;7.10;99.90;;;;;;5078564;28;19924;-78
2022/03/12 04:51:25;;;;;;;;;;;7.10;99.90;;;;;;5079002;28;19931;-78
2022/03/12 04:53:55;;;;;;;;;;;7.10;99.90;;;;;;5079214;28;19924;-85
2022/03/12 04:56:22;;;;;;;;;;;6.90;99.90;;;;;;5096151;28;20012;-78
2022/03/12 04:58:48;;;;;;;;;;;7.00;99.90;;;;;;5078917;28;19924;-78
2022/03/12 05:01:14;;;;;;;;;;;6.90;99.90;;;;;;5095510;28;19927;-78
2022/03/12 05:03:42;;;;;;;;;;;6.80;99.90;;;;;;5096083;28;19928;-78
2022/03/12 05:06:09;;;;;;;;;;;6.80;99.90;;;;;;5095860;28;19923;-77
2022/03/12 05:08:37;;;;;;;;;;;6.80;99.90;;;;;;5095722;28;19928;-78
2022/03/12 05:11:03;;;;;;;;;;;6.80;99.90;;;;;;5079056;28;19973;-78
2022/03/12 05:13:28;;;;;;;;;;;6.80;99.90;;;;;;5078773;28;20378;-78
2022/03/12 05:15:55;;;;;;;;;;;6.80;99.90;;;;;;5078705;28;19928;-78
2022/03/12 05:18:23;;;;;;;;;;;6.70;99.90;;;;;;5095552;28;19920;-78
2022/03/12 05:20:50;;;;;;;;;;;6.70;99.90;;;;;;5078754;28;19928;-78
2022/03/12 05:23:16;;;;;;;;;;;6.70;99.90;;;;;;5078556;28;19924;-78
2022/03/12 05:25:42;;;;;;;;;;;6.70;99.90;;;;;;5058284;28;20383;-77
2022/03/12 05:28:08;;;;;;;;;;;6.60;99.90;;;;;;5108543;28;19924;-78
2022/03/12 05:30:34;;;;;;;;;;;6.60;99.90;;;;;;5077232;28;19924;-78
2022/03/12 05:33:00;;;;;;;;;;;6.60;99.90;;;;;;5095073;28;19924;-80
2022/03/12 05:35:25;;;;;;;;;;;6.60;99.90;;;;;;5095727;28;19924;-78
2022/03/12 05:37:52;;;;;;;;;;;6.50;99.90;;;;;;5078683;28;20018;-78
2022/03/12 05:40:21;;;;;;;;;;;6.50;99.90;;;;;;5095538;28;19977;-77
2022/03/12 05:42:47;;;;;;;;;;;6.50;99.90;;;;;;5095522;28;20010;-78
2022/03/12 05:45:14;;;;;;;;;;;6.50;99.90;;;;;;5094830;28;19999;-78
2022/03/12 05:47:40;;;;;;;;;;;6.50;99.90;;;;;;5081184;28;19928;-77
2022/03/12 05:50:09;;;;;;;;;;;6.40;99.90;;;;;;5099270;28;19984;-78
2022/03/12 05:52:38;;;;;;;;;;;6.40;99.90;;;;;;5099111;28;19928;-78
2022/03/12 05:55:05;;;;;;;;;;;6.40;99.90;;;;;;5081979;28;19928;-78
2022/03/12 05:57:32;;;;;;;;;;;6.40;99.90;;;;;;5099365;28;20373;-78
2022/03/12 06:00:01;;;;;;;;;;;6.40;99.90;;;;;;5099013;28;19931;-78
2022/03/12 06:02:27;;;;;;;;;;;6.40;99.90;;;;;;5082578;28;19924;-77
2022/03/12 06:04:53;;;;;;;;;;;6.30;99.90;;;;;;5098828;28;19976;-78
2022/03/12 06:07:24;;;;;;;;;;;6.30;99.90;;;;;;5098541;28;19927;-78
2022/03/12 06:09:49;;;;;;;;;;;6.30;99.90;;;;;;5082567;28;19990;-78
2022/03/12 06:12:15;;;;;;;;;;;6.10;99.90;;;;;;5065267;28;19959;-78
2022/03/12 06:14:41;;;;;;;;;;;6.20;99.90;;;;;;5098838;28;19931;-78
2022/03/12 06:17:07;;;;;;;;;;;6.20;99.90;;;;;;5096732;28;19928;-78
2022/03/12 06:19:34;;;;;;;;;;;6.30;99.90;;;;;;5081292;28;19924;-78
2022/03/12 06:21:59;;;;;;;;;;;6.30;99.90;;;;;;5081797;28;19927;-84
2022/03/12 06:24:26;;;;;;;;;;;6.20;99.90;;;;;;5098740;28;20401;-78
2022/03/12 06:26:51;;;;;;;;;;;6.10;99.90;;;;;;5081495;28;19924;-78
2022/03/12 06:29:17;;;;;;;;;;;6.10;99.90;;;;;;5098164;28;19923;-78
2022/03/12 06:31:43;;;;;;;;;;;5.90;99.90;;;;;;5081699;28;19924;-78
2022/03/12 06:34:10;;;;;;;;;;;5.90;99.90;;;;;;5116565;28;19930;-78
2022/03/12 06:36:37;;;;;;;;;;;5.80;99.90;;;;;;5081453;28;19924;-78
2022/03/12 06:39:04;;;;;;;;;;;5.70;99.90;;;;;;5081250;28;19930;-78
2022/03/12 06:41:34;;;;;;;;;;;5.70;99.90;;;;;;5098298;28;19923;-78
2022/03/12 06:43:59;;;;;;;;;;;5.60;99.90;;;;;;5098111;28;19924;-80
2022/03/12 06:46:25;;;;;;;;;;;5.60;99.90;;;;;;5081058;28;19924;-78
2022/03/12 06:48:51;;;;;;;;;;;5.60;99.90;;;;;;5096691;28;19976;-78
2022/03/12 06:51:16;;;;;;;;;;;5.60;99.90;;;;;;5098259;28;19930;-78
2022/03/12 06:53:42;;;;;;;;;;;5.60;99.90;;;;;;5098147;28;19923;-78
2022/03/12 06:56:08;;;;;;;;;;;5.70;99.90;;;;;;5080627;28;20347;-78
2022/03/12 06:58:34;;;;;;;;;;;5.80;99.90;;;;;;5097310;28;19924;-78
2022/03/12 07:01:00;;;;;;;;;;;5.90;99.90;;;;;;5080941;28;20279;-78
2022/03/12 07:03:26;;;;;;;;;;;6.00;99.90;;;;;;5080212;28;20448;-79
2022/03/12 07:05:52;;;;;;;;;;;6.10;99.90;;;;;;5096309;28;19927;-78
2022/03/12 07:08:19;;;;;;;;;;;6.20;99.90;;;;;;5063379;28;20019;-79
2022/03/12 07:10:45;;;;;;;;;;;6.40;99.90;;;;;;5097629;28;19984;-78
2022/03/12 07:13:11;;;;;;;;;;;6.40;99.90;;;;;;5080334;28;20399;-78
2022/03/12 07:15:37;;;;;;;;;;;6.60;99.90;;;;;;5097467;28;20061;-78
2022/03/12 07:18:03;;;;;;;;;;;6.70;99.90;;;;;;5097559;28;19924;-78
2022/03/12 07:20:28;;;;;;;;;;;6.70;99.90;;;;;;5080271;28;19924;-78
2022/03/12 07:22:54;;;;;;;;;;;6.70;99.90;;;;;;5115753;28;20557;-76
2022/03/12 07:25:19;;;;;;;;;;;6.80;99.90;;;;;;5097408;28;20265;-79
2022/03/12 07:27:45;;;;;;;;;;;6.90;99.90;;;;;;5097210;28;20006;-77
2022/03/12 07:30:13;;;;;;;;;;;6.90;99.90;;;;;;5063686;28;19924;-76
2022/03/12 07:32:42;;;;;;;;;;;7.00;99.90;;;;;;5080705;28;19931;-76
2022/03/12 07:35:08;;;;;;;;;;;7.00;99.90;;;;;;5096757;28;19923;-78
2022/03/12 07:37:34;;;;;;;;;;;7.10;99.90;;;;;;5096456;28;20367;-77
2022/03/12 07:40:00;;;;;;;;;;;7.20;99.90;;;;;;5080219;28;19928;-77
2022/03/12 07:42:25;;;;;;;;;;;7.30;99.90;;;;;;5097305;28;19969;-77
2022/03/12 07:44:51;;;;;;;;;;;7.40;99.90;;;;;;5097065;28;19931;-77
2022/03/12 07:47:17;;;;;;;;;;;7.50;99.90;;;;;;5096787;28;20409;-78
2022/03/12 07:49:42;;;;;;;;;;;7.60;99.90;;;;;;5096179;28;19982;-78
2022/03/12 07:52:09;;;;;;;;;;;7.60;99.90;;;;;;5080286;28;20352;-77
2022/03/12 07:54:34;;;;;;;;;;;7.80;99.90;;;;;;5096965;28;19940;-77
2022/03/12 07:57:01;;;;;;;;;;;7.80;99.90;;;;;;5079223;28;19984;-78
2022/03/12 07:59:27;;;;;;;;;;;8.00;99.90;;;;;;5096808;28;20006;-76
2022/03/12 08:01:52;;;;;;;;;;;8.00;99.90;;;;;;5096466;28;20355;-82
2022/03/12 08:04:18;;;;;;;;;;;8.10;99.90;;;;;;5077834;28;19967;-78
2022/03/12 08:06:44;;;;;;;;;;;8.10;99.90;;;;;;5078987;28;20002;-78
2022/03/12 08:09:09;;;;;;;;;;;8.20;99.90;;;;;;5094547;28;19928;-85
2022/03/12 08:11:35;;;;;;;;;;;8.20;99.90;;;;;;5095509;28;19935;-79
2022/03/12 08:14:03;;;;;;;;;;;8.30;99.90;;;;;;5079146;28;19931;-78
2022/03/12 08:16:29;;;;;;;;;;;8.40;99.90;;;;;;5095866;28;19923;-78
2022/03/12 08:18:55;;;;;;;;;;;8.50;99.90;;;;;;5096209;28;20384;-78
2022/03/12 08:21:21;;;;;;;;;;;8.60;99.90;;;;;;5096230;28;20010;-78
2022/03/12 08:23:47;;;;;;;;;;;8.70;99.90;;;;;;5096179;28;20287;-78
2022/03/12 08:26:13;;;;;;;;;;;8.80;99.90;;;;;;5096445;28;19924;-87
2022/03/12 08:28:38;;;;;;;;;;;9.00;99.90;;;;;;5096057;28;19924;-78
2022/03/12 08:31:05;;;;;;;;;;;9.00;99.90;;;;;;5079587;28;19932;-80
2022/03/12 08:33:30;;;;;;;;;;;9.00;99.90;;;;;;5079032;28;20272;-78
2022/03/12 08:35:57;;;;;;;;;;;9.10;99.90;;;;;;5079422;28;19930;-78
2022/03/12 08:38:22;;;;;;;;;;;9.10;99.90;;;;;;5095591;28;19923;-78
2022/03/12 08:40:48;;;;;;;;;;;9.20;99.90;;;;;;5078985;28;19969;-77
2022/03/12 08:43:14;;;;;;;;;;;9.10;99.90;;;;;;5078927;28;19970;-83
2022/03/12 08:45:39;;;;;;;;;;;9.20;99.90;;;;;;5095570;28;19934;-82
2022/03/12 08:48:05;;;;;;;;;;;9.20;99.90;;;;;;5078258;28;19947;-78
2022/03/12 08:50:32;;;;;;;;;;;9.30;99.90;;;;;;5113712;28;19927;-79
2022/03/12 08:52:58;;;;;;;;;;;9.40;99.90;;;;;;5079271;28;19973;-78
2022/03/12 08:55:24;;;;;;;;;;;9.50;99.90;;;;;;5095826;28;19947;-78
2022/03/12 08:57:49;;;;;;;;;;;9.60;99.90;;;;;;5095986;28;19928;-81
2022/03/12 09:00:16;;;;;;;;;;;9.70;99.90;;;;;;5062512;28;19927;-78
2022/03/12 09:02:41;;;;;;;;;;;9.70;99.90;;;;;;5096005;28;19924;-78
2022/03/12 09:05:09;;;;;;;;;;;9.90;99.90;;;;;;5096056;28;20368;-78
2022/03/12 09:07:35;;;;;;;;;;;9.90;99.90;;;;;;5078931;28;19931;-79
2022/03/12 09:10:01;;;;;;;;;;;10.00;99.90;;;;;;5095287;28;20292;-78
2022/03/12 09:12:26;;;;;;;;;;;10.00;99.90;;;;;;5095680;28;19962;-78
2022/03/12 09:14:52;;;;;;;;;;;10.20;99.90;;;;;;5095954;28;19924;-78
2022/03/12 09:17:18;;;;;;;;;;;10.30;99.90;;;;;;5078891;28;19993;-82
2022/03/12 09:19:43;;;;;;;;;;;10.30;99.90;;;;;;5095744;28;20364;-78
2022/03/12 09:22:09;;;;;;;;;;;10.40;99.90;;;;;;5099462;28;19923;-80
2022/03/12 09:24:38;;;;;;;;;;;10.40;99.90;;;;;;5082673;28;19927;-78
2022/03/12 09:27:04;;;;;;;;;;;10.40;99.90;;;;;;5099704;28;19931;-78
2022/03/12 09:29:32;;;;;;;;;;;10.50;99.90;;;;;;5082773;28;19928;-78
2022/03/12 09:31:58;;;;;;;;;;;10.60;99.90;;;;;;5099818;28;19924;-78
2022/03/12 09:34:24;;;;;;;;;;;10.60;99.90;;;;;;5115232;28;19924;-79
2022/03/12 09:36:49;;;;;;;;;;;10.80;99.90;;;;;;5099361;28;19950;-78
2022/03/12 09:39:15;;;;;;;;;;;10.90;99.90;;;;;;5099754;28;19928;-78
2022/03/12 09:41:40;;;;;;;;;;;10.90;99.90;;;;;;5065705;28;20279;-79
2022/03/12 09:44:06;;;;;;;;;;;11.00;99.90;;;;;;5099139;28;19930;-80
2022/03/12 09:46:32;;;;;;;;;;;11.10;99.90;;;;;;5099086;28;19924;-79
2022/03/12 09:48:58;;;;;;;;;;;11.10;99.90;;;;;;5097944;28;19924;-79
2022/03/12 09:51:28;;;;;;;;;;;11.20;99.90;;;;;;5065121;28;19924;-78
2022/03/12 09:54:00;;;;;;;;;;;11.20;99.90;;;;;;5082500;28;19924;-79
2022/03/12 09:56:26;;;;;;;;;;;11.30;99.90;;;;;;5099060;28;19924;-79
2022/03/12 09:58:52;;;;;;;;;;;11.30;99.90;;;;;;5099203;28;19924;-77
2022/03/12 10:01:17;;;;;;;;;;;11.40;99.90;;;;;;5098316;28;19930;-80
2022/03/12 10:03:43;;;;;;;;;;;11.40;99.90;;;;;;5081899;28;20444;-80
2022/03/12 10:06:10;;;;;;;;;;;11.40;99.90;;;;;;5082047;28;19924;-78
2022/03/12 10:08:36;;;;;;;;;;;11.40;99.90;;;;;;5082296;28;19923;-79
2022/03/12 10:11:01;;;;;;;;;;;11.40;99.90;;;;;;5095049;28;19931;-78
2022/03/12 10:13:27;;;;;;;;;;;11.50;99.90;;;;;;5094753;28;19966;-79
2022/03/12 10:15:53;;;;;;;;;;;11.60;99.90;;;;;;5102137;28;20261;-80
2022/03/12 10:18:20;;;;;;;;;;;11.70;99.90;;;;;;5088622;28;19947;-79
2022/03/12 10:20:46;;;;;;;;;;;11.70;99.90;;;;;;5104819;28;19928;-79
2022/03/12 10:23:11;;;;;;;;;;;11.70;99.90;;;;;;5073030;28;19981;-79
2022/03/12 10:25:38;;;;;;;;;;;11.70;99.90;;;;;;5081174;28;19924;-79
2022/03/12 10:28:04;;;;;;;;;;;11.80;99.90;;;;;;5098114;28;19931;-80
2022/03/12 10:30:30;;;;;;;;;;;11.90;99.90;;;;;;5098220;28;19927;-80
2022/03/12 10:32:55;;;;;;;;;;;12.10;99.90;;;;;;5097327;28;20338;-80
2022/03/12 10:35:22;;;;;;;;;;;12.10;99.90;;;;;;5098194;28;19923;-80
2022/03/12 10:37:48;;;;;;;;;;;12.20;99.90;;;;;;5060945;28;20349;-80
2022/03/12 10:40:22;;;;;;;;;;;12.30;99.90;;;;;;5111479;28;19930;-81
2022/03/12 10:42:53;;;;;;;;;;;12.40;99.90;;;;;;5083463;28;20390;-81
2022/03/12 10:45:26;;;;;;;;;;;12.40;99.90;;;;;;5098138;28;20808;-81
2022/03/12 10:47:56;;;;;;;;;;;12.50;99.90;;;;;;5097557;28;19971;-81
2022/03/12 10:50:25;;;;;;;;;;;12.50;99.90;;;;;;5097094;28;19963;-80
2022/03/12 10:52:52;;;;;;;;;;;12.60;99.90;;;;;;5097995;28;20256;-81
2022/03/12 10:55:22;;;;;;;;;;;12.70;99.90;;;;;;5097890;28;19928;-81
2022/03/12 10:58:04;;;;;;;;;;;12.80;99.90;;;;;;5097551;28;19923;-81
2022/03/12 11:00:50;;;;;;;;;;;12.80;99.90;;;;;;5081324;28;19935;-81
2022/03/12 11:03:20;;;;;;;;;;;12.90;99.90;;;;;;5096845;28;19976;-81
2022/03/12 11:05:47;;;;;;;;;;;13.00;99.90;;;;;;5096793;28;20446;-81
2022/03/12 11:08:20;;;;;;;;;;;13.10;99.90;;;;;;5091025;28;19979;-80
2022/03/12 11:10:54;;;;;;;;;;;13.10;99.90;;;;;;5063395;28;20038;-81
2022/03/12 11:13:25;;;;;;;;;;;13.20;99.90;;;;;;5119415;27;19928;-83
2022/03/12 11:16:07;;;;;;;;;;;13.20;99.90;;;;;;5076562;28;19966;-81
2022/03/12 11:18:33;;;;;;;;;;;13.30;99.90;;;;;;5084282;28;19924;-81
2022/03/12 11:20:59;;;;;;;;;;;13.50;99.90;;;;;;5110658;27;20277;-82
2022/03/12 11:23:27;;;;;;;;;;;13.70;99.90;;;;;;5072758;28;19931;-79
2022/03/12 11:25:56;;;;;;;;;;;13.60;99.90;;;;;;5087934;28;19924;-77
2022/03/12 11:28:22;;;;;;;;;;;13.60;99.90;;;;;;5108422;28;20020;-79
2022/03/12 11:30:48;;;;;;;;;;;13.70;99.90;;;;;;5075395;28;19953;-81
2022/03/12 11:33:14;;;;;;;;;;;13.70;99.90;;;;;;5084819;27;20010;-80
2022/03/12 11:35:44;;;;;;;;;;;13.70;99.90;;;;;;5083297;28;19931;-80
2022/03/12 11:38:13;;;;;;;;;;;13.70;99.90;;;;;;5086288;28;19931;-81
2022/03/12 11:40:40;;;;;;;;;;;13.60;99.90;;;;;;5077211;28;19927;-80
2022/03/12 11:43:18;;;;;;;;;;;13.50;99.90;;;;;;5091574;28;20375;-80
2022/03/12 11:45:44;;;;;;;;;;;13.60;99.90;;;;;;5079634;28;19924;-81
2022/03/12 11:48:11;;;;;;;;;;;13.60;99.90;;;;;;5096793;28;19931;-82
2022/03/12 11:50:37;;;;;;;;;;;13.70;99.90;;;;;;5079082;28;19923;-81
2022/03/12 11:53:03;;;;;;;;;;;13.70;99.90;;;;;;5096848;28;20264;-80
2022/03/12 11:55:30;;;;;;;;;;;13.70;99.90;;;;;;5092304;28;19928;-89
2022/03/12 11:57:57;;;;;;;;;;;13.60;99.90;;;;;;5109687;28;19931;-81
2022/03/12 12:00:30;;;;;;;;;;;13.60;99.90;;;;;;5093723;28;19927;-81
2022/03/12 12:02:56;;;;;;;;;;;13.60;99.90;;;;;;5072477;28;19959;-79
2022/03/12 12:05:23;;;;;;;;;;;13.60;99.90;;;;;;5073035;28;19931;-80
2022/03/12 12:07:51;;;;;;;;;;;13.60;99.90;;;;;;5081930;28;20253;-80
2022/03/12 12:10:20;;;;;;;;;;;13.50;99.90;;;;;;5090267;28;20376;-81
2022/03/12 12:12:49;;;;;;;;;;;13.70;99.90;;;;;;5076824;28;20402;-79
2022/03/12 12:15:17;;;;;;;;;;;13.70;99.90;;;;;;5070858;28;19973;-80
2022/03/12 12:17:43;;;;;;;;;;;13.90;99.90;;;;;;5076800;28;19931;-81
2022/03/12 12:20:09;;;;;;;;;;;13.80;99.90;;;;;;5094247;28;20061;-81
2022/03/12 12:22:35;;;;;;;;;;;13.80;99.90;;;;;;5076983;28;19928;-79
2022/03/12 12:25:02;;;;;;;;;;;13.90;99.90;;;;;;5084692;28;19924;-83
2022/03/12 12:27:44;;;;;;;;;;;14.00;99.90;;;;;;5078776;28;20014;-81
2022/03/12 12:30:15;;;;;;;;;;;14.00;99.90;;;;;;5096023;28;19981;-80
2022/03/12 12:32:46;;;;;;;;;;;14.20;99.90;;;;;;5079068;28;19928;-80
2022/03/12 12:35:15;;;;;;;;;;;14.40;99.90;;;;;;5095890;28;19928;-81
2022/03/12 12:37:46;;;;;;;;;;;14.50;99.90;;;;;;5129171;27;20383;-81
2022/03/12 12:40:32;;;;;;;;;;;14.70;99.90;;;;;;5112488;28;19988;-81
2022/03/12 12:42:59;;;;;;;;;;;14.70;99.90;;;;;;5078717;28;19928;-81
2022/03/12 12:45:29;;;;;;;;;;;14.70;99.90;;;;;;5095560;28;19957;-81
2022/03/12 12:48:08;;;;;;;;;;;14.80;99.90;;;;;;5095466;28;19931;-80
2022/03/12 12:50:34;;;;;;;;;;;14.80;99.90;;;;;;5081769;28;20279;-81
2022/03/12 12:53:14;;;;;;;;;;;14.90;99.90;;;;;;5110220;28;19924;-81
2022/03/12 12:55:41;;;;;;;;;;;14.90;99.90;;;;;;5089802;28;19924;-80
2022/03/12 12:58:07;;;;;;;;;;;14.70;99.90;;;;;;5078692;28;20018;-80
2022/03/12 13:00:33;;;;;;;;;;;14.60;99.90;;;;;;5095779;28;20019;-85
2022/03/12 13:03:00;;;;;;;;;;;14.70;99.90;;;;;;5095686;28;19928;-80
2022/03/12 13:05:45;;;;;;;;;;;14.50;99.90;;;;;;5078846;28;19959;-80
2022/03/12 13:08:12;;;;;;;;;;;14.40;99.90;;;;;;5078196;28;19923;-80
2022/03/12 13:10:38;;;;;;;;;;;14.30;99.90;;;;;;5095442;28;19923;-81
2022/03/12 13:13:12;;;;;;;;;;;14.10;99.90;;;;;;5112232;28;20398;-80
2022/03/12 13:15:42;;;;;;;;;;;14.00;99.90;;;;;;5075260;28;20022;-80
2022/03/12 13:18:34;;;;;;;;;;;13.90;99.90;;;;;;5075346;28;20300;-80
2022/03/12 13:21:00;;;;;;;;;;;14.00;99.90;;;;;;5086798;28;20387;-80
2022/03/12 13:23:33;;;;;;;;;;;14.20;99.90;;;;;;5075125;28;19924;-80
2022/03/12 13:25:59;;;;;;;;;;;14.40;99.90;;;;;;5094893;28;19924;-82
2022/03/12 13:28:44;;;;;;;;;;;14.40;99.90;;;;;;5076133;28;19932;-82
2022/03/12 13:31:16;;;;;;;;;;;14.50;99.90;;;;;;5092794;28;19963;-79
2022/03/12 13:33:42;;;;;;;;;;;14.60;99.90;;;;;;5068583;28;19969;-78
2022/03/12 13:36:21;;;;;;;;;;;14.60;99.90;;;;;;5074693;28;19975;-77
2022/03/12 13:38:47;;;;;;;;;;;14.70;99.90;;;;;;5094320;28;19924;-78
2022/03/12 13:41:14;;;;;;;;;;;14.60;99.90;;;;;;5073543;28;20326;-79
2022/03/12 13:43:40;;;;;;;;;;;14.50;99.90;;;;;;5093303;28;19977;-80
2022/03/12 13:46:06;;;;;;;;;;;14.50;99.90;;;;;;5069066;28;19940;-80
2022/03/12 13:48:31;;;;;;;;;;;14.50;99.90;;;;;;5074332;28;19924;-79
2022/03/12 13:50:57;;;;;;;;;;;14.40;99.90;;;;;;5082011;28;20372;-80
2022/03/12 13:53:29;;;;;;;;;;;14.70;99.90;;;;;;5081197;28;19924;-79
2022/03/12 13:56:04;;;;;;;;;;;14.90;99.90;;;;;;5069424;28;19928;-80
2022/03/12 13:58:30;;;;;;;;;;;15.00;99.90;;;;;;5119732;28;19975;-81
2022/03/12 14:00:58;;;;;;;;;;;15.20;99.90;;;;;;5084337;28;20021;-76
2022/03/12 14:03:27;;;;;;;;;;;15.40;99.90;;;;;;5071153;28;20276;-79
2022/03/12 14:05:52;;;;;;;;;;;15.30;99.90;;;;;;5084466;28;20029;-80
2022/03/12 14:08:22;;;;;;;;;;;15.00;99.90;;;;;;5088390;28;19924;-84
2022/03/12 14:10:55;;;;;;;;;;;14.80;99.90;;;;;;5104910;28;20292;-83
2022/03/12 14:13:21;;;;;;;;;;;14.70;99.90;;;;;;5081378;28;19924;-79
2022/03/12 14:15:48;;;;;;;;;;;14.80;99.90;;;;;;5111968;28;20004;-82
2022/03/12 14:18:26;;;;;;;;;;;14.90;99.90;;;;;;5089582;28;19931;-78
2022/03/12 14:20:52;;;;;;;;;;;14.80;99.90;;;;;;5076777;28;19924;-78
2022/03/12 14:23:20;;;;;;;;;;;14.70;99.90;;;;;;5069238;28;19930;-78
2022/03/12 14:25:47;;;;;;;;;;;14.70;99.90;;;;;;5066683;28;20445;-81
2022/03/12 14:28:13;;;;;;;;;;;14.50;99.90;;;;;;5123570;27;20287;-80